createdAt,value
2019-03-29T00:02:02.327Z,64.48
2019-03-29T00:04:30.396Z,64.40
2019-03-29T00:06:58.467Z,63.19
2019-03-29T00:09:26.239Z,64.82
2019-03-29T00:11:53.997Z,63.72
2019-03-29T00:14:23.459Z,63.64
2019-03-29T00:16:51.305Z,64.20
2019-03-29T00:19:19.535Z,63.81
2019-03-29T00:21:47.302Z,64.43
2019-03-29T00:24:15.294Z,64.25
2019-03-29T00:26:43.033Z,64.98
2019-03-29T00:29:10.794Z,65.18
2019-03-29T00:31:39.368Z,65.94
2019-03-29T00:34:07.253Z,65.07
2019-03-29T00:36:35.211Z,64.82
2019-03-29T00:39:05.023Z,65.58
2019-03-29T00:41:32.490Z,66.50
2019-03-29T00:44:00.350Z,66.51
2019-03-29T00:46:28.927Z,66.42
2019-03-29T00:48:56.698Z,66.64
2019-03-29T00:51:25.196Z,66.71
2019-03-29T00:53:53.250Z,66.76
2019-03-29T00:56:20.910Z,67.14
2019-03-29T00:58:48.885Z,66.88
2019-03-29T01:01:17.461Z,68.00
2019-03-29T01:03:45.323Z,68.20
2019-03-29T01:06:15.444Z,69.25
2019-03-29T01:08:43.000Z,68.85
2019-03-29T01:11:10.672Z,69.28
2019-03-29T01:13:38.531Z,67.90
2019-03-29T01:16:06.291Z,68.03
2019-03-29T01:18:35.080Z,68.82
2019-03-29T01:21:02.847Z,67.97
2019-03-29T01:23:30.608Z,68.17
2019-03-29T01:25:58.377Z,68.35
2019-03-29T01:28:26.140Z,68.99
2019-03-29T01:30:53.896Z,68.92
2019-03-29T01:33:21.665Z,68.34
2019-03-29T01:35:50.347Z,69.62
2019-03-29T01:38:22.229Z,69.26
2019-03-29T01:40:47.520Z,68.34
2019-03-29T01:43:15.281Z,68.88
2019-03-29T01:45:43.039Z,68.39
2019-03-29T01:48:10.700Z,68.47
2019-03-29T01:50:38.574Z,68.41
2019-03-29T01:53:07.148Z,68.38
2019-03-29T01:55:34.503Z,68.62
2019-03-29T01:58:02.370Z,68.90
2019-03-29T02:00:31.672Z,68.96
2019-03-29T02:02:59.437Z,68.68
2019-03-29T02:05:27.767Z,69.09
2019-03-29T02:07:55.578Z,67.34
2019-03-29T02:10:23.238Z,67.70
